createdAt,value
2022-12-15T00:04:53.324Z,-0.10
2022-12-15T00:10:13.747Z,-0.10
2022-12-15T00:15:34.154Z,-0.10
2022-12-15T00:20:54.724Z,-0.10
2022-12-15T00:26:15.208Z,-0.10
2022-12-15T00:31:35.339Z,-0.10
2022-12-15T00:36:55.760Z,-0.10
2022-12-15T00:41:57.575Z,-0.10
2022-12-15T00:46:59.472Z,0.00
2022-12-15T00:52:19.940Z,-0.10
2022-12-15T00:57:40.308Z,0.00
2022-12-15T01:03:00.760Z,0.00
2022-12-15T01:08:21.672Z,0.00
2022-12-15T01:13:42.027Z,0.00
2022-12-15T01:19:02.510Z,0.00
2022-12-15T01:24:04.742Z,0.00
2022-12-15T01:29:06.603Z,-0.10
2022-12-15T01:34:08.404Z,-0.10
2022-12-15T01:39:11.098Z,-0.10
2022-12-15T01:44:23.750Z,-0.10
2022-12-15T01:49:28.590Z,-0.20
2022-12-15T01:54:43.382Z,-0.20
2022-12-15T01:59:50.894Z,-0.20
2022-12-15T02:04:56.648Z,-0.20
2022-12-15T02:10:00.948Z,-0.10
2022-12-15T02:15:19.941Z,-0.10
2022-12-15T02:20:43.727Z,-0.10
2022-12-15T02:26:22.222Z,-0.20
2022-12-15T02:31:49.796Z,-0.10
2022-12-15T02:36:56.297Z,-0.10
2022-12-15T02:41:58.164Z,-0.10
2022-12-15T02:47:11.887Z,-0.10
2022-12-15T02:52:28.522Z,-0.10
2022-12-15T02:57:30.271Z,-0.10
2022-12-15T03:02:34.653Z,-0.10
2022-12-15T03:07:36.594Z,-0.10
2022-12-15T03:12:38.536Z,0.00
2022-12-15T03:17:40.414Z,-0.10
2022-12-15T03:22:42.317Z,-0.10
2022-12-15T03:27:45.936Z,0.00
2022-12-15T03:32:47.751Z,0.00
2022-12-15T03:37:49.751Z,0.00
2022-12-15T03:42:52.780Z,0.10
2022-12-15T03:47:56.028Z,0.10
2022-12-15T03:53:02.786Z,0.10
2022-12-15T03:58:04.633Z,0.10
2022-12-15T04:03:06.613Z,0.10
2022-12-15T04:08:08.613Z,0.10
2022-12-15T04:13:11.582Z,0.10
2022-12-15T04:18:13.477Z,0.10
2022-12-15T04:23:15.302Z,0.10
2022-12-15T04:28:35.772Z,0.20
2022-12-15T04:33:58.602Z,0.10
2022-12-15T04:39:19.026Z,0.10
2022-12-15T04:44:39.426Z,0.10
2022-12-15T04:49:59.597Z,0.10
2022-12-15T04:55:19.939Z,0.10
2022-12-15T05:00:40.416Z,0.10
2022-12-15T05:06:00.777Z,0.10
2022-12-15T05:11:21.016Z,0.20
2022-12-15T05:16:41.381Z,0.10
2022-12-15T05:22:01.936Z,0.10
2022-12-15T05:27:22.332Z,0.10
2022-12-15T05:32:24.178Z,0.10
2022-12-15T05:37:26.029Z,0.20
2022-12-15T05:42:27.932Z,0.10
2022-12-15T05:47:29.806Z,0.20
2022-12-15T05:52:31.706Z,0.20
2022-12-15T05:57:33.608Z,0.20
2022-12-15T06:02:35.604Z,0.20
2022-12-15T06:07:37.790Z,0.20
2022-12-15T06:12:39.647Z,0.20
2022-12-15T06:17:41.587Z,0.20
2022-12-15T06:22:49.555Z,0.20
2022-12-15T06:27:51.955Z,0.20
2022-12-15T06:32:55.680Z,0.20
2022-12-15T06:37:57.498Z,0.20
2022-12-15T06:42:59.361Z,0.20
2022-12-15T06:48:01.825Z,0.20
2022-12-15T06:53:09.990Z,0.30
2022-12-15T06:58:12.944Z,0.30
2022-12-15T07:03:17.144Z,0.30
2022-12-15T07:08:19.114Z,0.30
2022-12-15T07:13:20.948Z,0.30
2022-12-15T07:18:22.871Z,0.30
2022-12-15T07:23:52.820Z,0.30
2022-12-15T07:28:50.455Z,0.40
2022-12-15T07:33:53.833Z,0.40
2022-12-15T07:39:02.897Z,0.50
2022-12-15T07:44:04.719Z,0.60
2022-12-15T07:49:06.514Z,0.70
2022-12-15T07:54:11.968Z,0.90
2022-12-15T07:59:13.900Z,1.00
2022-12-15T08:04:16.395Z,1.10
2022-12-15T08:09:18.980Z,1.10
2022-12-15T08:14:21.204Z,1.10
2022-12-15T08:19:23.358Z,1.10
2022-12-15T08:24:25.158Z,1.10
2022-12-15T08:34:49.696Z,1.30
2022-12-15T08:39:51.498Z,1.20
2022-12-15T08:44:53.315Z,1.30
2022-12-15T08:49:55.727Z,1.20
2022-12-15T08:54:57.544Z,1.20
2022-12-15T08:59:59.358Z,1.20
2022-12-15T09:05:01.334Z,1.40
2022-12-15T09:10:03.382Z,1.40
2022-12-15T09:15:05.884Z,1.60
2022-12-15T09:20:16.615Z,1.70
2022-12-15T09:25:20.474Z,1.70
2022-12-15T09:30:22.479Z,1.70
2022-12-15T09:35:26.886Z,1.90
2022-12-15T09:40:30.066Z,2.20
2022-12-15T09:45:40.001Z,2.40
2022-12-15T09:50:42.765Z,2.50
2022-12-15T09:55:49.562Z,2.50
2022-12-15T10:00:57.569Z,2.40
2022-12-15T10:06:17.123Z,2.30
2022-12-15T10:11:26.394Z,2.20
2022-12-15T10:16:44.062Z,2.10
2022-12-15T10:27:12.031Z,2.20
2022-12-15T10:32:25.812Z,2.20
2022-12-15T10:37:27.628Z,2.20
2022-12-15T10:42:29.777Z,2.10
2022-12-15T10:47:32.156Z,2.00
2022-12-15T10:52:36.404Z,2.00
2022-12-15T10:57:38.293Z,2.10
2022-12-15T11:02:42.156Z,2.30
2022-12-15T11:07:55.570Z,2.50
2022-12-15T11:13:15.624Z,2.60
2022-12-15T11:18:29.423Z,2.60
2022-12-15T11:24:02.052Z,2.50
2022-12-15T11:29:17.633Z,2.40
2022-12-15T11:34:27.699Z,2.40
2022-12-15T11:39:44.600Z,2.30
2022-12-15T11:45:09.343Z,2.20
2022-12-15T11:50:43.485Z,2.20
2022-12-15T11:56:00.398Z,2.20
2022-12-15T12:01:37.151Z,2.10
2022-12-15T12:06:58.524Z,2.10
2022-12-15T12:12:18.907Z,2.10
2022-12-15T12:17:23.474Z,2.20
2022-12-15T12:22:51.864Z,2.10
2022-12-15T12:28:03.738Z,2.10
2022-12-15T12:33:14.894Z,1.90
2022-12-15T12:38:22.213Z,1.90
2022-12-15T12:43:50.277Z,1.80
2022-12-15T12:49:10.947Z,1.80
2022-12-15T12:54:34.283Z,1.80
2022-12-15T12:59:38.210Z,1.80
2022-12-15T13:04:49.882Z,1.70
2022-12-15T13:10:20.480Z,1.70
2022-12-15T13:15:29.496Z,1.70
2022-12-15T13:20:33.187Z,1.60
2022-12-15T13:25:39.275Z,1.60
2022-12-15T13:31:16.535Z,1.60
2022-12-15T13:36:36.599Z,1.60
2022-12-15T13:42:00.310Z,1.60
2022-12-15T13:47:18.123Z,1.50
2022-12-15T13:52:44.320Z,1.50
2022-12-15T13:57:54.321Z,1.50
2022-12-15T14:03:12.022Z,1.40
2022-12-15T14:08:15.970Z,1.40
2022-12-15T14:13:26.821Z,1.40
2022-12-15T14:18:41.689Z,1.30
2022-12-15T14:24:03.956Z,1.30
2022-12-15T14:29:06.817Z,1.20
2022-12-15T14:34:09.349Z,1.20
2022-12-15T14:39:22.434Z,1.20
2022-12-15T14:44:39.092Z,1.20
2022-12-15T14:49:43.602Z,1.20
2022-12-15T14:54:57.845Z,1.10
2022-12-15T15:00:00.016Z,1.10
2022-12-15T15:05:04.953Z,1.10
2022-12-15T15:10:22.920Z,1.10
2022-12-15T15:15:25.969Z,1.10
2022-12-15T15:20:28.297Z,1.00
2022-12-15T15:25:31.658Z,1.10
2022-12-15T15:30:56.625Z,1.00
2022-12-15T15:36:01.139Z,1.00
2022-12-15T15:41:14.771Z,1.00
2022-12-15T15:46:20.379Z,1.00
2022-12-15T15:51:24.280Z,0.90
2022-12-15T15:56:27.456Z,0.90
2022-12-15T16:01:29.339Z,0.90
2022-12-15T16:06:31.352Z,0.90
2022-12-15T16:11:33.815Z,0.90
2022-12-15T16:16:35.836Z,0.90
2022-12-15T16:21:38.430Z,0.90
2022-12-15T16:26:44.441Z,0.90
2022-12-15T16:31:46.742Z,0.90
2022-12-15T16:36:52.106Z,0.80
2022-12-15T16:41:55.478Z,0.80
2022-12-15T16:46:59.325Z,0.80
2022-12-15T16:52:01.391Z,0.80
2022-12-15T16:57:03.775Z,0.90
2022-12-15T17:02:33.388Z,0.90
2022-12-15T17:07:35.523Z,0.90
2022-12-15T17:12:39.871Z,0.90
2022-12-15T17:17:41.849Z,0.90
2022-12-15T17:22:45.382Z,0.90
2022-12-15T17:27:49.251Z,0.90
2022-12-15T17:32:51.049Z,0.90
2022-12-15T17:37:53.598Z,0.90
2022-12-15T17:42:55.402Z,0.90
2022-12-15T17:47:57.213Z,0.90
2022-12-15T17:53:02.019Z,0.90
2022-12-15T17:58:09.378Z,0.80
2022-12-15T18:03:15.454Z,0.90
2022-12-15T18:08:27.030Z,0.90
2022-12-15T18:13:35.539Z,0.90
2022-12-15T18:18:40.110Z,0.80
2022-12-15T18:23:41.989Z,0.80
2022-12-15T18:28:44.034Z,0.80
2022-12-15T18:33:46.117Z,0.80
2022-12-15T18:38:48.712Z,0.80
2022-12-15T18:43:50.756Z,0.80
2022-12-15T18:48:54.485Z,0.80
2022-12-15T18:53:56.443Z,0.80
2022-12-15T18:59:01.190Z,0.70
2022-12-15T19:04:03.098Z,0.70
2022-12-15T19:09:14.669Z,0.70
2022-12-15T19:14:36.477Z,0.70
2022-12-15T19:19:56.746Z,0.70
2022-12-15T19:24:59.138Z,0.70
2022-12-15T19:30:00.959Z,0.70
2022-12-15T19:35:04.414Z,0.60
2022-12-15T19:40:07.581Z,0.60
2022-12-15T19:45:18.523Z,0.60
2022-12-15T19:50:33.602Z,0.60
2022-12-15T19:55:35.994Z,0.60
2022-12-15T20:00:37.991Z,0.60
2022-12-15T20:05:40.534Z,0.60
2022-12-15T20:10:42.367Z,0.60
2022-12-15T20:15:44.314Z,0.60
2022-12-15T20:20:47.887Z,0.60
2022-12-15T20:25:49.819Z,0.60
2022-12-15T20:30:52.164Z,0.50
2022-12-15T20:35:56.075Z,0.60
2022-12-15T20:40:59.334Z,0.60
2022-12-15T20:46:05.508Z,0.60
2022-12-15T20:51:09.776Z,0.60
2022-12-15T20:56:11.883Z,0.60
2022-12-15T21:01:26.177Z,0.60
2022-12-15T21:06:29.981Z,0.60
2022-12-15T21:11:32.817Z,0.60
2022-12-15T21:16:34.735Z,0.60
2022-12-15T21:21:39.315Z,0.60
2022-12-15T21:26:44.273Z,0.60
2022-12-15T21:31:46.729Z,0.60
2022-12-15T21:36:52.003Z,0.60
2022-12-15T21:41:55.137Z,0.60
2022-12-15T21:46:57.531Z,0.60
2022-12-15T21:52:01.469Z,0.70
2022-12-15T21:57:03.405Z,0.70
2022-12-15T22:02:25.882Z,0.70
2022-12-15T22:07:30.162Z,0.70
2022-12-15T22:12:32.022Z,0.70
2022-12-15T22:17:33.859Z,0.70
2022-12-15T22:22:35.807Z,0.60
2022-12-15T22:27:37.623Z,0.70
2022-12-15T22:32:39.617Z,0.70
2022-12-15T22:37:45.417Z,0.70
2022-12-15T22:42:51.450Z,0.70
2022-12-15T22:47:55.077Z,0.70
2022-12-15T22:52:57.136Z,0.70
2022-12-15T22:58:03.160Z,0.70
2022-12-15T23:03:05.856Z,0.70
2022-12-15T23:08:07.950Z,0.70
2022-12-15T23:13:09.766Z,0.70
2022-12-15T23:18:11.728Z,0.70
2022-12-15T23:23:13.721Z,0.70
2022-12-15T23:28:15.548Z,0.70
2022-12-15T23:33:18.402Z,0.80
2022-12-15T23:38:20.233Z,0.80
2022-12-15T23:43:23.725Z,0.80
2022-12-15T23:48:29.959Z,0.80
2022-12-15T23:53:32.501Z,0.80
2022-12-15T23:58:34.627Z,0.80
